createdAt,value
2022-12-19T00:00:35.119Z,43.30
2022-12-19T00:03:03.220Z,40.90
2022-12-19T00:05:31.314Z,44.80
2022-12-19T00:07:59.167Z,41.28
2022-12-19T00:10:34.355Z,43.03
2022-12-19T00:13:02.323Z,47.13
2022-12-19T00:15:30.126Z,43.63
2022-12-19T00:17:57.945Z,47.40
2022-12-19T00:20:25.843Z,43.83
2022-12-19T00:22:53.672Z,45.85
2022-12-19T00:25:23.021Z,44.22
2022-12-19T00:27:52.772Z,38.08
2022-12-19T00:30:20.770Z,37.15
2022-12-19T00:32:48.717Z,43.00
2022-12-19T00:35:16.776Z,43.25
2022-12-19T00:37:49.619Z,38.03
2022-12-19T00:40:18.440Z,39.15
2022-12-19T00:42:51.746Z,49.53
2022-12-19T00:45:23.001Z,38.55
2022-12-19T00:47:50.935Z,34.80
2022-12-19T00:50:18.833Z,39.63
2022-12-19T00:52:46.635Z,36.97
2022-12-19T00:55:18.834Z,41.65
2022-12-19T01:00:16.631Z,42.42
2022-12-19T01:02:46.413Z,46.53
2022-12-19T01:05:14.370Z,38.75
2022-12-19T01:07:42.387Z,37.63
2022-12-19T01:10:11.066Z,34.00
2022-12-19T01:12:46.665Z,37.92
2022-12-19T01:15:16.692Z,39.40
2022-12-19T01:17:46.234Z,32.22
2022-12-19T01:20:15.538Z,36.28
2022-12-19T01:22:43.523Z,40.63
2022-12-19T01:25:14.569Z,32.90
2022-12-19T01:27:42.398Z,34.47
2022-12-19T01:30:11.788Z,34.28
2022-12-19T01:32:40.198Z,33.15
2022-12-19T01:35:21.349Z,30.58
2022-12-19T01:37:50.559Z,34.47
2022-12-19T01:40:18.369Z,36.80
2022-12-19T01:42:46.188Z,38.85
2022-12-19T01:45:34.036Z,33.58
2022-12-19T01:48:15.370Z,33.90
2022-12-19T01:51:01.031Z,37.35
2022-12-19T01:53:36.208Z,34.95
2022-12-19T01:56:11.640Z,41.30
2022-12-19T01:58:42.713Z,34.58
2022-12-19T02:01:10.665Z,35.33
2022-12-19T02:03:40.601Z,32.47
2022-12-19T02:06:14.635Z,32.38
2022-12-19T02:08:43.069Z,41.08
2022-12-19T02:11:11.113Z,30.40
2022-12-19T02:13:40.754Z,34.25
2022-12-19T02:16:24.757Z,30.60
2022-12-19T02:19:11.797Z,40.28
2022-12-19T02:21:54.723Z,29.00
2022-12-19T02:25:00.860Z,31.65
2022-12-19T02:28:10.926Z,35.60
2022-12-19T02:30:53.787Z,31.55
2022-12-19T02:33:32.478Z,38.75
2022-12-19T02:36:09.118Z,41.05
2022-12-19T02:38:43.335Z,31.02
2022-12-19T02:41:16.755Z,38.22
2022-12-19T02:43:57.272Z,37.28
2022-12-19T02:46:30.986Z,42.70
2022-12-19T02:48:59.454Z,39.33
2022-12-19T02:51:27.633Z,43.20
2022-12-19T02:53:55.581Z,39.80
2022-12-19T02:56:35.451Z,40.95
2022-12-19T02:59:21.633Z,35.10
2022-12-19T03:01:56.382Z,34.03
2022-12-19T03:04:36.302Z,34.50
2022-12-19T03:07:14.278Z,33.35
2022-12-19T03:09:51.908Z,35.63
2022-12-19T03:12:27.577Z,37.25
2022-12-19T03:17:29.832Z,42.75
2022-12-19T03:19:58.375Z,45.72
2022-12-19T03:22:26.295Z,34.08
2022-12-19T03:24:54.173Z,33.22
2022-12-19T03:27:27.529Z,36.83
2022-12-19T03:30:00.926Z,40.67
2022-12-19T03:32:31.825Z,38.08
2022-12-19T03:35:04.112Z,35.45
2022-12-19T03:37:35.423Z,37.63
2022-12-19T03:40:07.539Z,37.22
2022-12-19T03:42:56.652Z,39.33
2022-12-19T03:45:33.037Z,38.25
2022-12-19T03:48:08.866Z,41.20
2022-12-19T03:50:47.777Z,40.75
2022-12-19T03:53:27.374Z,36.92
2022-12-19T03:56:03.027Z,37.40
2022-12-19T03:58:34.824Z,43.97
2022-12-19T04:01:05.869Z,42.30
2022-12-19T04:03:35.395Z,41.00
2022-12-19T04:06:05.617Z,42.92
2022-12-19T04:08:34.931Z,42.75
2022-12-19T04:11:07.983Z,41.03
2022-12-19T04:13:39.815Z,44.20
2022-12-19T04:16:14.600Z,46.85
2022-12-19T04:18:48.794Z,43.72
2022-12-19T04:21:21.285Z,49.10
2022-12-19T04:23:53.904Z,43.78
2022-12-19T04:26:23.124Z,44.45
2022-12-19T04:28:54.198Z,42.17
2022-12-19T04:31:23.301Z,46.60
2022-12-19T04:33:52.667Z,39.53
2022-12-19T04:36:20.584Z,38.22
2022-12-19T04:38:48.512Z,42.42
2022-12-19T04:41:16.401Z,41.67
2022-12-19T04:43:44.371Z,43.78
2022-12-19T04:46:12.308Z,43.72
2022-12-19T04:48:40.250Z,50.63
2022-12-19T04:51:09.704Z,46.33
2022-12-19T04:53:37.662Z,45.70
2022-12-19T04:56:07.147Z,42.53
2022-12-19T04:58:35.144Z,42.42
2022-12-19T05:01:03.362Z,43.78
2022-12-19T05:03:31.290Z,43.22
2022-12-19T05:06:07.552Z,46.65
2022-12-19T05:08:38.363Z,36.97
2022-12-19T05:11:07.636Z,44.38
2022-12-19T05:13:35.856Z,41.38
2022-12-19T05:16:06.005Z,43.42
2022-12-19T05:18:34.055Z,40.72
2022-12-19T05:21:02.299Z,44.15
2022-12-19T05:23:30.317Z,41.58
2022-12-19T05:26:00.713Z,40.28
2022-12-19T05:28:29.041Z,45.33
2022-12-19T05:31:04.922Z,44.13
2022-12-19T05:33:32.850Z,41.00
2022-12-19T05:36:00.785Z,40.58
2022-12-19T05:38:29.282Z,48.05
2022-12-19T05:40:57.241Z,41.42
2022-12-19T05:43:26.665Z,44.55
2022-12-19T05:45:54.615Z,43.70
2022-12-19T05:48:22.596Z,38.25
2022-12-19T05:50:51.010Z,40.80
2022-12-19T05:53:24.561Z,47.80
2022-12-19T05:55:54.114Z,46.97
2022-12-19T05:58:22.047Z,45.15
2022-12-19T06:00:51.297Z,42.50
2022-12-19T06:03:19.276Z,39.88
2022-12-19T06:05:47.352Z,34.47
2022-12-19T06:08:15.228Z,47.17
2022-12-19T06:10:43.107Z,41.92
2022-12-19T06:13:11.011Z,39.75
2022-12-19T06:15:38.911Z,41.97
2022-12-19T06:18:09.001Z,36.42
2022-12-19T06:20:37.381Z,38.80
2022-12-19T06:23:05.520Z,45.88
2022-12-19T06:25:33.493Z,45.35
2022-12-19T06:28:01.366Z,39.88
2022-12-19T06:30:29.625Z,38.80
2022-12-19T06:32:57.493Z,45.58
2022-12-19T06:35:26.753Z,46.25
2022-12-19T06:37:59.399Z,50.40
2022-12-19T06:40:46.343Z,40.28
2022-12-19T06:43:14.205Z,43.10
2022-12-19T06:45:42.083Z,42.33
2022-12-19T06:48:10.037Z,37.63
2022-12-19T06:50:39.258Z,39.10
2022-12-19T06:53:07.119Z,42.35
2022-12-19T06:55:37.220Z,39.25
2022-12-19T06:58:05.277Z,36.28
2022-12-19T07:00:38.034Z,46.17
2022-12-19T07:03:09.331Z,39.65
2022-12-19T07:05:37.515Z,40.25
2022-12-19T07:08:06.984Z,41.78
2022-12-19T07:10:34.870Z,35.67
2022-12-19T07:13:02.939Z,36.38
2022-12-19T07:15:33.031Z,39.10
2022-12-19T07:18:01.471Z,41.63
2022-12-19T07:20:31.445Z,41.67
2022-12-19T07:22:59.401Z,44.42
2022-12-19T07:25:28.663Z,34.75
2022-12-19T07:27:56.743Z,40.13
2022-12-19T07:30:24.595Z,45.08
2022-12-19T07:32:53.105Z,36.80
2022-12-19T07:35:24.423Z,40.55
2022-12-19T07:37:52.391Z,35.80
2022-12-19T07:40:20.321Z,36.55
2022-12-19T07:42:49.610Z,39.03
2022-12-19T07:45:17.675Z,32.63
2022-12-19T07:47:48.412Z,33.55
2022-12-19T07:50:16.343Z,41.42
2022-12-19T07:52:44.786Z,36.95
2022-12-19T07:55:13.521Z,34.75
2022-12-19T07:57:41.448Z,38.63
2022-12-19T08:00:12.332Z,38.80
2022-12-19T08:02:40.511Z,38.35
2022-12-19T08:05:08.866Z,39.65
2022-12-19T08:07:36.829Z,34.25
2022-12-19T08:10:06.811Z,38.35
2022-12-19T08:12:36.029Z,36.35
2022-12-19T08:15:05.817Z,46.42
2022-12-19T08:17:38.609Z,38.70
2022-12-19T08:20:08.252Z,38.90
2022-12-19T08:22:36.460Z,39.47
2022-12-19T08:25:04.594Z,42.88
2022-12-19T08:27:32.436Z,36.42
2022-12-19T08:30:00.318Z,44.80
2022-12-19T08:32:29.642Z,37.92
2022-12-19T08:34:58.895Z,35.08
2022-12-19T08:37:26.763Z,36.50
2022-12-19T08:39:54.830Z,40.00
2022-12-19T08:42:22.676Z,34.63
2022-12-19T08:44:50.522Z,34.50
2022-12-19T08:47:18.470Z,33.63
2022-12-19T08:49:46.316Z,34.35
2022-12-19T08:52:15.542Z,38.33
2022-12-19T08:54:45.452Z,36.88
2022-12-19T08:57:13.347Z,33.15
2022-12-19T08:59:41.204Z,36.17
2022-12-19T09:02:11.071Z,31.92
2022-12-19T09:05:59.415Z,36.67
2022-12-19T09:07:29.189Z,35.38
2022-12-19T09:09:57.108Z,35.50
2022-12-19T09:12:25.095Z,31.80
2022-12-19T09:14:52.981Z,39.97
2022-12-19T09:17:20.931Z,35.95
2022-12-19T09:19:48.861Z,39.10
2022-12-19T09:22:17.618Z,37.25
2022-12-19T09:24:47.139Z,32.47
2022-12-19T09:27:15.091Z,35.33
2022-12-19T09:29:43.672Z,39.60
2022-12-19T09:32:11.523Z,36.58
2022-12-19T09:34:39.754Z,38.17
2022-12-19T09:37:16.462Z,38.47
2022-12-19T09:39:47.493Z,35.85
2022-12-19T09:42:26.420Z,39.53
2022-12-19T09:45:09.630Z,36.78
2022-12-19T09:47:45.025Z,37.67
2022-12-19T09:50:27.111Z,34.70
2022-12-19T09:53:00.601Z,35.28
2022-12-19T09:55:35.938Z,32.13
2022-12-19T09:58:09.249Z,35.60
2022-12-19T10:00:42.940Z,37.95
2022-12-19T10:03:21.827Z,35.53
2022-12-19T10:06:34.795Z,39.13
2022-12-19T10:09:04.873Z,36.08
2022-12-19T10:12:46.214Z,38.88
2022-12-19T10:14:52.327Z,37.38
2022-12-19T10:17:29.892Z,40.03
2022-12-19T10:20:19.253Z,30.58
2022-12-19T10:22:57.283Z,35.33
2022-12-19T10:25:42.778Z,35.63
2022-12-19T10:28:21.798Z,36.53
2022-12-19T10:31:01.499Z,33.72
2022-12-19T10:33:42.276Z,31.60
2022-12-19T10:36:12.039Z,31.83
2022-12-19T10:38:46.311Z,40.75
2022-12-19T10:41:23.542Z,33.05
2022-12-19T10:44:02.364Z,29.55
2022-12-19T10:46:39.446Z,38.58
2022-12-19T10:49:17.050Z,38.72
2022-12-19T10:51:54.911Z,34.13
2022-12-19T10:54:27.543Z,33.33
2022-12-19T10:57:19.228Z,36.70
2022-12-19T10:59:58.101Z,31.17
2022-12-19T11:02:36.950Z,36.42
2022-12-19T11:05:20.753Z,33.60
2022-12-19T11:08:01.590Z,33.20
2022-12-19T11:11:54.967Z,38.80
2022-12-19T11:16:05.481Z,37.08
2022-12-19T11:18:09.910Z,35.20
2022-12-19T11:29:32.466Z,35.90
2022-12-19T11:29:38.395Z,31.08
2022-12-19T11:30:09.729Z,37.78
2022-12-19T11:30:42.809Z,32.83
2022-12-19T11:33:57.145Z,34.47
2022-12-19T11:36:31.661Z,32.92
2022-12-19T11:39:01.003Z,36.15
2022-12-19T11:41:34.714Z,33.85
2022-12-19T11:44:09.834Z,35.60
2022-12-19T11:46:45.653Z,29.63
2022-12-19T11:49:24.435Z,41.38
2022-12-19T11:52:29.448Z,32.47
2022-12-19T11:55:04.510Z,34.08
2022-12-19T11:57:33.043Z,28.92
2022-12-19T12:00:05.071Z,32.45
2022-12-19T12:03:03.040Z,35.28
2022-12-19T12:05:45.721Z,33.53
2022-12-19T12:10:05.252Z,36.93
2022-12-19T12:16:05.446Z,33.15
2022-12-19T12:27:58.056Z,38.25
2022-12-19T12:30:10.099Z,35.22
2022-12-19T12:31:16.502Z,41.15
2022-12-19T12:31:21.386Z,36.20
2022-12-19T12:31:51.388Z,36.70
2022-12-19T12:32:05.580Z,35.65
2022-12-19T12:35:51.083Z,37.35
2022-12-19T12:38:37.373Z,33.78
2022-12-19T12:41:20.389Z,39.22
2022-12-19T12:44:06.012Z,40.90
2022-12-19T12:46:38.485Z,33.28
2022-12-19T12:49:24.907Z,37.22
2022-12-19T12:51:53.401Z,35.00
2022-12-19T12:54:26.923Z,36.28
2022-12-19T12:56:56.003Z,36.13
2022-12-19T12:59:25.764Z,32.03
2022-12-19T13:01:55.647Z,36.25
2022-12-19T13:04:34.105Z,34.67
2022-12-19T13:07:15.395Z,34.08
2022-12-19T13:09:45.156Z,39.80
2022-12-19T13:12:39.465Z,39.58
2022-12-19T13:15:32.574Z,36.20
2022-12-19T13:18:31.217Z,33.90
2022-12-19T13:21:00.990Z,34.15
2022-12-19T13:23:44.991Z,42.40
2022-12-19T13:26:49.374Z,37.65
2022-12-19T13:29:58.082Z,37.03
2022-12-19T13:32:26.993Z,36.25
2022-12-19T13:35:02.447Z,42.25
2022-12-19T13:39:50.481Z,38.50
2022-12-19T13:40:51.634Z,35.17
2022-12-19T13:43:40.383Z,45.00
2022-12-19T13:46:40.212Z,36.55
2022-12-19T13:49:14.436Z,45.42
2022-12-19T13:51:55.814Z,35.17
2022-12-19T13:54:28.417Z,35.80
2022-12-19T13:57:01.045Z,40.10
2022-12-19T13:59:40.250Z,42.47
2022-12-19T14:02:18.903Z,38.58
2022-12-19T14:04:47.131Z,37.50
2022-12-19T14:07:36.210Z,44.72
2022-12-19T14:11:41.014Z,39.20
2022-12-19T14:13:54.077Z,47.00
2022-12-19T14:16:05.065Z,43.90
2022-12-19T14:18:43.064Z,44.28
2022-12-19T14:22:07.898Z,45.78
2022-12-19T14:24:11.767Z,47.40
2022-12-19T14:28:18.955Z,39.42
2022-12-19T14:30:26.130Z,43.67
2022-12-19T14:33:40.659Z,47.72
2022-12-19T14:36:08.840Z,45.22
2022-12-19T14:39:19.485Z,37.53
2022-12-19T14:41:08.049Z,45.28
2022-12-19T14:43:57.550Z,40.13
2022-12-19T14:53:34.253Z,37.90
2022-12-19T14:54:13.169Z,40.67
2022-12-19T14:54:31.209Z,35.05
2022-12-19T14:56:08.549Z,42.72
2022-12-19T14:58:53.233Z,39.90
2022-12-19T15:01:24.231Z,41.30
2022-12-19T15:04:50.501Z,48.38
2022-12-19T15:07:09.586Z,46.72
2022-12-19T15:11:00.399Z,40.05
2022-12-19T15:14:48.758Z,45.85
2022-12-19T15:15:45.890Z,40.75
2022-12-19T15:18:40.060Z,39.92
2022-12-19T15:21:11.103Z,41.60
2022-12-19T15:23:39.776Z,41.20
2022-12-19T15:26:15.147Z,53.13
2022-12-19T15:28:45.216Z,45.60
2022-12-19T15:31:29.722Z,46.40
2022-12-19T15:36:45.988Z,44.42
2022-12-19T15:39:15.061Z,49.38
2022-12-19T15:41:46.627Z,44.22
2022-12-19T15:44:19.634Z,47.20
2022-12-19T15:46:49.319Z,48.72
2022-12-19T15:49:18.906Z,39.05
2022-12-19T15:51:47.492Z,49.35
2022-12-19T15:54:47.254Z,47.53
2022-12-19T15:57:05.318Z,42.97
2022-12-19T15:59:38.422Z,52.47
2022-12-19T16:02:17.570Z,35.60
2022-12-19T16:04:47.334Z,44.92
2022-12-19T16:07:20.051Z,47.65
2022-12-19T16:09:47.968Z,41.97
2022-12-19T16:12:20.245Z,48.63
2022-12-19T16:14:50.222Z,36.57
2022-12-19T16:17:21.221Z,40.10
2022-12-19T16:19:49.838Z,33.63
2022-12-19T16:22:20.497Z,39.78
2022-12-19T16:24:48.431Z,42.08
2022-12-19T16:27:24.761Z,39.85
2022-12-19T16:29:54.016Z,42.80
2022-12-19T16:32:24.501Z,42.70
2022-12-19T16:34:54.390Z,43.13
2022-12-19T16:37:27.189Z,38.83
2022-12-19T16:39:56.598Z,39.45
2022-12-19T16:42:25.838Z,38.25
2022-12-19T16:44:54.263Z,43.97
2022-12-19T16:47:22.311Z,36.83
2022-12-19T16:49:50.265Z,41.13
2022-12-19T16:52:18.155Z,46.78
2022-12-19T16:54:46.020Z,43.40
2022-12-19T16:57:20.134Z,41.88
2022-12-19T16:59:49.894Z,42.40
2022-12-19T17:02:41.641Z,49.83
2022-12-19T17:05:16.722Z,39.75
2022-12-19T17:07:44.746Z,40.78
2022-12-19T17:10:12.805Z,39.13
2022-12-19T17:12:42.812Z,42.08
2022-12-19T17:15:24.160Z,43.08
2022-12-19T17:17:54.212Z,40.22
2022-12-19T17:20:24.411Z,43.13
2022-12-19T17:22:52.461Z,39.65
2022-12-19T17:25:23.295Z,36.90
2022-12-19T17:27:52.292Z,42.47
2022-12-19T17:30:22.795Z,39.85
2022-12-19T17:32:53.071Z,44.17
2022-12-19T17:35:27.729Z,38.10
2022-12-19T17:37:57.849Z,37.80
2022-12-19T17:40:27.446Z,37.10
2022-12-19T17:42:56.171Z,39.33
2022-12-19T17:45:26.119Z,43.53
2022-12-19T17:48:02.091Z,43.72
2022-12-19T17:50:35.331Z,41.78
2022-12-19T17:53:03.223Z,42.67
2022-12-19T17:55:31.848Z,41.95
2022-12-19T17:57:59.979Z,47.28
2022-12-19T18:00:32.350Z,50.10
2022-12-19T18:03:04.901Z,42.60
2022-12-19T18:05:35.833Z,42.10
2022-12-19T18:08:04.916Z,42.80
2022-12-19T18:10:33.467Z,43.78
2022-12-19T18:13:01.460Z,40.28
2022-12-19T18:15:31.086Z,44.13
2022-12-19T18:18:00.009Z,41.35
2022-12-19T18:20:32.111Z,45.55
2022-12-19T18:23:01.693Z,39.97
2022-12-19T18:25:32.012Z,39.63
2022-12-19T18:27:59.977Z,42.72
2022-12-19T18:30:27.904Z,41.20
2022-12-19T18:32:59.790Z,39.47
2022-12-19T18:35:32.593Z,41.55
2022-12-19T18:38:02.713Z,40.22
2022-12-19T18:40:31.921Z,40.75
2022-12-19T18:43:00.294Z,43.22
2022-12-19T18:45:33.333Z,41.50
2022-12-19T18:48:05.208Z,40.80
2022-12-19T18:50:33.184Z,43.63
2022-12-19T18:53:02.045Z,42.80
2022-12-19T18:55:32.573Z,42.60
2022-12-19T18:58:00.640Z,42.45
2022-12-19T19:00:29.309Z,39.55
2022-12-19T19:03:00.444Z,46.05
2022-12-19T19:05:32.449Z,39.45
2022-12-19T19:08:12.994Z,40.55
2022-12-19T19:10:40.942Z,35.47
2022-12-19T19:13:12.149Z,43.58
2022-12-19T19:15:46.522Z,39.65
2022-12-19T19:18:15.962Z,35.60
2022-12-19T19:20:46.599Z,43.92
2022-12-19T19:23:15.357Z,40.03
2022-12-19T19:25:43.560Z,33.67
2022-12-19T19:28:11.555Z,32.42
2022-12-19T19:30:40.682Z,40.38
2022-12-19T19:33:14.131Z,35.13
2022-12-19T19:38:14.550Z,38.33
2022-12-19T19:40:43.374Z,36.50
2022-12-19T19:43:11.340Z,36.25
2022-12-19T19:45:43.181Z,35.95
2022-12-19T19:48:12.159Z,35.23
2022-12-19T19:50:40.173Z,40.75
2022-12-19T19:53:08.422Z,40.00
2022-12-19T19:55:37.759Z,38.53
2022-12-19T19:58:05.680Z,37.72
2022-12-19T20:00:33.560Z,44.47
2022-12-19T20:03:07.236Z,37.60
2022-12-19T20:05:37.525Z,38.63
2022-12-19T20:08:06.013Z,34.42
2022-12-19T20:10:34.011Z,36.42
2022-12-19T20:13:03.474Z,38.20
2022-12-19T20:15:31.769Z,39.10
2022-12-19T20:18:00.192Z,38.67
2022-12-19T20:20:28.200Z,36.85
2022-12-19T20:22:56.116Z,38.45
2022-12-19T20:25:24.169Z,35.15
2022-12-19T20:27:52.379Z,35.28
2022-12-19T20:30:22.151Z,31.85
2022-12-19T20:32:49.996Z,35.13
2022-12-19T20:35:18.072Z,31.13
2022-12-19T20:37:45.945Z,35.88
2022-12-19T20:40:14.352Z,33.50
2022-12-19T20:42:42.345Z,34.55
2022-12-19T20:45:10.973Z,33.78
2022-12-19T20:47:40.246Z,28.50
2022-12-19T20:50:09.401Z,30.17
2022-12-19T20:52:37.554Z,30.50
2022-12-19T20:55:06.168Z,29.20
2022-12-19T20:57:34.295Z,31.67
2022-12-19T21:00:02.302Z,32.63
2022-12-19T21:02:46.262Z,28.15
2022-12-19T21:05:20.549Z,37.55
2022-12-19T21:07:48.754Z,31.00
2022-12-19T21:10:16.801Z,25.52
2022-12-19T21:12:47.829Z,26.58
2022-12-19T21:15:16.650Z,32.10
2022-12-19T21:17:44.785Z,30.08
2022-12-19T21:20:13.346Z,32.67
2022-12-19T21:22:42.669Z,31.15
2022-12-19T21:25:10.661Z,29.23
2022-12-19T21:27:38.556Z,28.25
2022-12-19T21:30:07.210Z,31.85
2022-12-19T21:32:35.104Z,34.20
2022-12-19T21:35:03.017Z,29.67
2022-12-19T21:41:37.997Z,27.10
2022-12-19T21:44:06.028Z,33.78
2022-12-19T21:46:34.740Z,36.70
2022-12-19T21:49:03.625Z,30.40
2022-12-19T21:51:32.809Z,33.17
2022-12-19T21:54:02.112Z,26.80
2022-12-19T21:56:32.190Z,32.05
2022-12-19T21:59:03.056Z,26.58
2022-12-19T22:01:31.704Z,33.38
2022-12-19T22:04:00.787Z,32.10
2022-12-19T22:06:31.299Z,32.05
2022-12-19T22:09:00.243Z,31.08
2022-12-19T22:11:29.784Z,31.70
2022-12-19T22:14:01.247Z,26.75
2022-12-19T22:16:29.618Z,26.08
2022-12-19T22:18:57.810Z,30.23
2022-12-19T22:21:26.789Z,28.08
2022-12-19T22:23:57.985Z,27.35
2022-12-19T22:26:27.601Z,30.48
2022-12-19T22:28:56.893Z,34.15
2022-12-19T22:31:28.473Z,31.15
2022-12-19T22:33:59.015Z,28.90
2022-12-19T22:36:29.123Z,31.63
2022-12-19T22:38:58.705Z,28.85
2022-12-19T22:41:27.006Z,28.45
2022-12-19T22:43:55.705Z,31.73
2022-12-19T22:46:27.247Z,35.45
2022-12-19T22:48:58.203Z,29.38
2022-12-19T22:51:27.551Z,33.92
2022-12-19T22:53:55.941Z,29.75
2022-12-19T22:56:25.650Z,29.92
2022-12-19T22:58:55.309Z,31.77
2022-12-19T23:01:25.841Z,32.40
2022-12-19T23:03:57.423Z,28.77
2022-12-19T23:06:27.490Z,32.70
2022-12-19T23:08:55.456Z,27.02
2022-12-19T23:11:26.526Z,25.70
2022-12-19T23:13:54.901Z,30.48
2022-12-19T23:16:22.847Z,30.20
2022-12-19T23:18:50.838Z,30.40
2022-12-19T23:21:24.611Z,36.45
2022-12-19T23:23:56.040Z,29.52
2022-12-19T23:26:26.563Z,28.58
2022-12-19T23:28:56.871Z,27.63
2022-12-19T23:31:25.836Z,30.95
2022-12-19T23:33:54.065Z,28.13
2022-12-19T23:37:00.466Z,26.13
2022-12-19T23:39:12.338Z,31.17
2022-12-19T23:41:40.712Z,25.35
2022-12-19T23:44:09.216Z,27.90
2022-12-19T23:46:37.985Z,28.83
2022-12-19T23:49:05.988Z,28.13
2022-12-19T23:51:35.260Z,26.48
2022-12-19T23:54:03.296Z,27.58
2022-12-19T23:56:33.255Z,26.92
2022-12-19T23:59:01.682Z,30.48
